createdAt,value
2023-03-29T00:02:50.213Z,83.55
2023-03-29T00:07:54.213Z,83.82
2023-03-29T00:12:55.916Z,83.33
2023-03-29T00:17:58.103Z,84.10
2023-03-29T00:22:59.764Z,84.25
2023-03-29T00:28:01.357Z,83.29
2023-03-29T00:33:05.380Z,83.36
2023-03-29T00:38:07.024Z,83.53
2023-03-29T00:43:13.690Z,83.86
2023-03-29T00:48:18.164Z,83.92
2023-03-29T00:53:41.151Z,83.91
2023-03-29T00:58:57.540Z,83.51
2023-03-29T01:04:08.474Z,84.75
2023-03-29T01:09:14.656Z,84.09
2023-03-29T01:14:28.396Z,84.15
2023-03-29T01:19:38.710Z,84.89
2023-03-29T01:24:55.098Z,84.99
2023-03-29T01:30:02.090Z,84.39
2023-03-29T01:35:25.003Z,85.22
2023-03-29T01:40:28.258Z,85.41
2023-03-29T01:45:29.766Z,85.95
2023-03-29T01:50:49.976Z,87.53
2023-03-29T01:56:04.516Z,88.23
2023-03-29T02:01:10.476Z,87.81
2023-03-29T02:06:14.365Z,88.64
2023-03-29T02:11:16.221Z,88.72
2023-03-29T02:16:18.497Z,89.36
2023-03-29T02:21:27.988Z,90.00
2023-03-29T02:26:29.655Z,89.64
2023-03-29T02:31:43.162Z,90.48
2023-03-29T02:36:51.945Z,91.06
2023-03-29T02:41:54.675Z,92.23
2023-03-29T02:47:03.163Z,92.61
2023-03-29T02:52:10.809Z,93.49
2023-03-29T02:57:12.452Z,93.68
2023-03-29T03:02:14.106Z,94.58
2023-03-29T03:07:20.059Z,94.48
2023-03-29T03:12:21.690Z,94.46
2023-03-29T03:17:23.317Z,94.61
2023-03-29T03:22:26.416Z,95.04
2023-03-29T03:27:30.318Z,94.82
2023-03-29T03:32:34.305Z,94.93
2023-03-29T03:37:58.838Z,94.62
2023-03-29T03:43:00.568Z,94.90
2023-03-29T03:48:02.212Z,94.35
2023-03-29T03:53:16.077Z,94.85
2023-03-29T03:58:37.825Z,95.23
2023-03-29T04:03:41.006Z,96.06
2023-03-29T04:08:47.988Z,96.27
2023-03-29T04:14:00.324Z,96.22
2023-03-29T04:19:12.137Z,95.68
2023-03-29T04:24:16.521Z,95.69
2023-03-29T04:29:29.162Z,95.22
2023-03-29T04:34:44.274Z,94.63
2023-03-29T04:39:46.493Z,94.79
2023-03-29T04:44:48.887Z,95.56
2023-03-29T04:49:58.220Z,95.01
2023-03-29T04:55:11.674Z,94.89
2023-03-29T05:00:27.076Z,94.90
2023-03-29T05:05:53.301Z,95.81
2023-03-29T05:10:58.342Z,95.58
2023-03-29T05:16:03.684Z,95.61
2023-03-29T05:21:06.393Z,96.38
2023-03-29T05:26:10.008Z,96.45
2023-03-29T05:31:16.155Z,96.35
2023-03-29T05:36:20.911Z,96.15
2023-03-29T05:41:26.301Z,95.80
2023-03-29T05:46:47.824Z,95.81
2023-03-29T05:51:52.407Z,95.20
2023-03-29T05:56:54.034Z,94.31
2023-03-29T06:01:55.724Z,94.20
2023-03-29T06:06:57.479Z,94.65
2023-03-29T06:11:59.454Z,95.25
2023-03-29T06:17:12.337Z,93.97
2023-03-29T06:22:14.987Z,92.67
2023-03-29T06:27:17.608Z,91.56
2023-03-29T06:32:19.953Z,92.50
2023-03-29T06:37:49.963Z,93.14
2023-03-29T06:43:20.980Z,92.14
2023-03-29T06:48:33.407Z,91.75
2023-03-29T06:53:38.059Z,92.28
2023-03-29T06:58:40.932Z,91.50
2023-03-29T07:04:00.249Z,90.21
2023-03-29T07:09:07.887Z,90.83
2023-03-29T07:14:30.085Z,89.64
2023-03-29T07:19:32.204Z,88.86
2023-03-29T07:24:47.032Z,88.63
2023-03-29T07:29:50.012Z,87.91
2023-03-29T07:34:52.766Z,86.57
2023-03-29T07:40:18.705Z,86.79
2023-03-29T07:45:44.964Z,85.46
2023-03-29T07:50:48.398Z,85.32
2023-03-29T07:55:54.741Z,86.34
2023-03-29T08:01:19.867Z,84.66
2023-03-29T08:06:51.479Z,83.87
2023-03-29T08:11:55.563Z,83.34
2023-03-29T08:17:03.003Z,81.87
2023-03-29T08:22:06.273Z,81.34
2023-03-29T08:27:26.599Z,79.59
2023-03-29T08:32:28.728Z,78.45
2023-03-29T08:37:31.776Z,76.67
2023-03-29T08:42:52.285Z,74.74
2023-03-29T08:48:06.995Z,73.79
2023-03-29T08:53:31.798Z,72.79
2023-03-29T08:58:58.418Z,70.89
2023-03-29T09:04:20.165Z,68.58
2023-03-29T09:09:33.853Z,66.63
2023-03-29T09:14:56.283Z,65.49
2023-03-29T09:20:21.215Z,65.59
2023-03-29T09:25:52.621Z,65.04
2023-03-29T09:31:01.911Z,64.24
2023-03-29T09:36:10.085Z,62.46
2023-03-29T09:41:21.471Z,61.21
2023-03-29T09:46:34.323Z,60.41
2023-03-29T09:51:36.729Z,59.03
2023-03-29T09:56:39.575Z,57.32
2023-03-29T10:01:48.256Z,56.96
2023-03-29T10:06:52.569Z,55.71
2023-03-29T10:12:06.786Z,54.33
2023-03-29T10:17:23.515Z,52.60
2023-03-29T10:22:27.715Z,51.58
2023-03-29T10:27:34.548Z,51.88
2023-03-29T10:32:38.474Z,50.76
2023-03-29T10:37:45.018Z,51.54
2023-03-29T10:42:49.949Z,51.25
2023-03-29T10:47:51.926Z,51.08
2023-03-29T10:52:53.811Z,50.36
2023-03-29T10:58:09.626Z,49.79
2023-03-29T11:03:17.040Z,48.38
2023-03-29T11:08:31.654Z,49.56
2023-03-29T11:13:42.905Z,48.20
2023-03-29T11:19:25.984Z,47.03
2023-03-29T11:24:38.280Z,46.25
2023-03-29T11:29:58.642Z,46.55
2023-03-29T11:35:18.581Z,47.60
2023-03-29T11:41:02.853Z,47.01
2023-03-29T11:46:29.572Z,46.40
2023-03-29T11:51:34.294Z,46.57
2023-03-29T11:56:55.127Z,46.85
2023-03-29T12:02:05.126Z,47.09
2023-03-29T12:07:19.834Z,45.79
2023-03-29T12:12:34.975Z,44.32
2023-03-29T12:17:54.858Z,44.26
2023-03-29T12:22:56.695Z,44.71
2023-03-29T12:28:15.109Z,44.89
2023-03-29T12:33:25.815Z,46.16
2023-03-29T12:38:53.333Z,46.89
2023-03-29T12:44:16.546Z,48.28
2023-03-29T12:49:35.920Z,48.28
2023-03-29T12:54:37.482Z,48.49
2023-03-29T12:59:44.176Z,48.94
2023-03-29T13:04:57.520Z,51.34
2023-03-29T13:10:08.177Z,59.52
2023-03-29T13:15:16.781Z,67.47
2023-03-29T13:20:21.872Z,73.23
2023-03-29T13:25:42.114Z,76.56
2023-03-29T13:31:01.129Z,78.44
2023-03-29T13:36:23.349Z,79.55
2023-03-29T13:41:40.508Z,79.30
2023-03-29T13:46:43.127Z,77.24
2023-03-29T13:52:02.763Z,74.21
2023-03-29T13:57:25.124Z,73.26
2023-03-29T14:02:37.888Z,73.77
2023-03-29T14:07:44.673Z,73.72
2023-03-29T14:12:47.505Z,73.37
2023-03-29T14:17:49.424Z,72.61
2023-03-29T14:22:51.837Z,71.74
2023-03-29T14:27:55.822Z,70.95
2023-03-29T14:32:57.598Z,71.34
2023-03-29T14:38:00.511Z,69.63
2023-03-29T14:43:07.965Z,68.30
2023-03-29T14:48:13.399Z,68.31
2023-03-29T14:53:23.576Z,67.04
2023-03-29T14:58:32.747Z,67.16
2023-03-29T15:03:54.929Z,68.00
2023-03-29T15:09:06.005Z,68.41
2023-03-29T15:14:15.595Z,69.02
2023-03-29T15:19:24.925Z,68.14
2023-03-29T15:24:32.717Z,67.14
2023-03-29T15:29:42.081Z,65.59
2023-03-29T15:34:43.701Z,65.57
2023-03-29T15:39:45.289Z,65.25
2023-03-29T15:44:46.845Z,65.69
2023-03-29T15:49:48.417Z,65.73
2023-03-29T15:54:49.920Z,64.89
2023-03-29T15:59:51.532Z,64.75
2023-03-29T16:04:53.440Z,65.97
2023-03-29T16:09:54.912Z,67.68
2023-03-29T16:14:56.454Z,68.53
2023-03-29T16:19:57.983Z,69.31
2023-03-29T16:24:59.503Z,69.51
2023-03-29T16:30:01.140Z,69.78
2023-03-29T16:35:04.549Z,70.21
2023-03-29T16:40:07.777Z,70.41
2023-03-29T16:45:13.900Z,71.01
2023-03-29T16:50:18.841Z,71.54
2023-03-29T16:55:20.538Z,70.84
2023-03-29T17:00:22.249Z,70.97
2023-03-29T17:05:25.267Z,70.86
2023-03-29T17:10:26.804Z,71.33
2023-03-29T17:15:28.636Z,71.58
2023-03-29T17:20:31.054Z,71.48
2023-03-29T17:25:32.568Z,70.78
2023-03-29T17:30:35.003Z,71.48
2023-03-29T17:35:36.776Z,72.75
2023-03-29T17:40:38.573Z,73.33
2023-03-29T17:45:42.256Z,74.04
2023-03-29T17:50:43.725Z,74.90
2023-03-29T17:55:45.395Z,75.85
2023-03-29T18:00:46.948Z,76.33
2023-03-29T18:05:48.521Z,77.19
2023-03-29T18:10:50.092Z,77.70
2023-03-29T18:15:56.422Z,78.08
2023-03-29T18:20:58.173Z,78.67
2023-03-29T18:26:02.814Z,80.14
2023-03-29T18:31:05.914Z,80.76
2023-03-29T18:36:12.692Z,81.43
2023-03-29T18:41:14.935Z,82.21
2023-03-29T18:46:16.496Z,82.39
2023-03-29T18:51:18.033Z,83.12
2023-03-29T18:56:19.621Z,83.21
2023-03-29T19:01:23.312Z,83.93
2023-03-29T19:06:24.991Z,84.26
2023-03-29T19:11:28.839Z,84.54
2023-03-29T19:16:30.727Z,85.21
2023-03-29T19:21:33.233Z,85.45
2023-03-29T19:26:35.362Z,85.99
2023-03-29T19:31:37.914Z,86.89
2023-03-29T19:36:39.777Z,87.09
2023-03-29T19:41:41.948Z,86.16
2023-03-29T19:46:43.587Z,86.31
2023-03-29T19:51:45.506Z,86.41
2023-03-29T19:56:47.180Z,85.89
2023-03-29T20:01:51.837Z,87.11
2023-03-29T20:06:53.383Z,87.33
2023-03-29T20:11:54.971Z,87.29
2023-03-29T20:16:56.640Z,87.14
2023-03-29T20:21:58.847Z,87.53
2023-03-29T20:27:00.735Z,88.49
2023-03-29T20:32:02.343Z,88.97
2023-03-29T20:37:03.968Z,90.35
2023-03-29T20:42:06.359Z,90.15
2023-03-29T20:47:08.340Z,89.75
2023-03-29T20:52:15.573Z,89.43
2023-03-29T20:57:20.651Z,88.73
2023-03-29T21:02:22.901Z,87.17
2023-03-29T21:07:24.566Z,85.50
2023-03-29T21:12:26.086Z,82.02
2023-03-29T21:17:27.667Z,79.72
2023-03-29T21:22:29.354Z,77.03
2023-03-29T21:27:30.844Z,75.31
2023-03-29T21:32:32.459Z,73.90
2023-03-29T21:37:36.249Z,72.00
2023-03-29T21:42:37.870Z,70.36
2023-03-29T21:47:39.492Z,69.72
2023-03-29T21:52:41.006Z,68.83
2023-03-29T21:57:42.554Z,67.77
2023-03-29T22:02:45.898Z,66.89
2023-03-29T22:07:50.402Z,67.05
2023-03-29T22:12:52.552Z,66.36
2023-03-29T22:17:57.743Z,66.35
2023-03-29T22:23:00.801Z,65.36
2023-03-29T22:28:02.307Z,65.55
2023-03-29T22:33:03.910Z,65.75
2023-03-29T22:38:05.488Z,65.02
2023-03-29T22:43:07.032Z,64.46
2023-03-29T22:48:08.597Z,64.78
2023-03-29T22:53:10.294Z,64.73
2023-03-29T22:58:11.862Z,63.45
2023-03-29T23:03:13.420Z,64.15
2023-03-29T23:08:14.947Z,64.66
2023-03-29T23:13:23.558Z,65.08
2023-03-29T23:18:26.033Z,64.72
2023-03-29T23:23:28.239Z,64.63
2023-03-29T23:28:31.673Z,64.19
2023-03-29T23:33:35.193Z,64.26
2023-03-29T23:38:38.747Z,64.65
2023-03-29T23:43:42.145Z,64.93
2023-03-29T23:48:45.950Z,65.56
2023-03-29T23:53:47.795Z,65.43
2023-03-29T23:58:49.884Z,65.33
